Time;durP1;ratioP1;P1;durP2;ratioP2;P2;SDS_P1;SDS_P2;PMS_P1;PMS_P2;Temp;Humidity;BMP_temperature;BMP_pressure;BME280_temperature;BME280_humidity;BME280_pressure;Samples;Min_cycle;Max_cycle;Signal;HPM_P1;HPM_P2
2022/01/08 07:24:54;;;;;;;9.60;3.85;;;;;;;0.26;88.64;97372.84;5159369;23;20514;-48
2022/01/08 07:27:20;;;;;;;10.65;4.25;;;;;;;0.79;88.04;97377.50;4936441;29;20036;-51
2022/01/08 07:29:45;;;;;;;8.07;3.45;;;;;;;0.96;86.15;97377.63;4954689;29;20485;-49
2022/01/08 07:32:11;;;;;;;8.50;3.75;;;;;;;1.25;85.89;97375.53;4936809;29;20027;-51
2022/01/08 07:34:36;;;;;;;7.72;3.63;;;;;;;1.15;85.00;97383.66;4921825;29;20078;-51
2022/01/08 07:37:01;;;;;;;10.13;4.05;;;;;;;0.89;86.13;97384.78;4926347;29;20096;-51
2022/01/08 07:39:27;;;;;;;8.80;3.72;;;;;;;0.78;86.21;97392.16;4933655;29;20027;-50
2022/01/08 07:41:52;;;;;;;8.02;3.45;;;;;;;1.06;85.32;97402.13;4934793;29;20035;-49
2022/01/08 07:44:18;;;;;;;9.27;4.13;;;;;;;0.89;85.96;97408.03;4934946;29;20100;-50
2022/01/08 07:46:43;;;;;;;10.75;3.88;;;;;;;1.02;85.85;97418.69;4931437;29;20055;-50
2022/01/08 07:49:09;;;;;;;9.45;4.30;;;;;;;1.03;85.72;97407.44;4933311;29;20039;-51
2022/01/08 07:51:35;;;;;;;9.07;3.90;;;;;;;0.79;86.72;97408.47;4935451;29;20038;-47
2022/01/08 07:54:00;;;;;;;8.35;3.60;;;;;;;1.10;85.67;97414.03;4934890;29;20040;-47
2022/01/08 07:56:25;;;;;;;7.55;3.70;;;;;;;0.97;85.83;97423.22;4935070;29;20034;-47
2022/01/08 07:58:51;;;;;;;8.35;4.05;;;;;;;0.97;85.86;97418.03;4934279;29;20050;-46
2022/01/08 08:01:16;;;;;;;10.77;4.10;;;;;;;1.20;85.07;97424.78;4934027;29;20035;-49
2022/01/08 08:03:41;;;;;;;9.55;4.57;;;;;;;1.34;84.33;97426.75;4934646;29;20019;-45
2022/01/08 08:06:10;;;;;;;8.32;3.60;;;;;;;1.13;85.43;97434.53;4933154;29;20039;-49
2022/01/08 08:08:36;;;;;;;9.95;4.20;;;;;;;0.89;86.18;97427.84;4934539;29;20423;-47
2022/01/08 08:11:01;;;;;;;9.02;4.10;;;;;;;1.14;85.33;97436.25;4934511;29;20118;-48
2022/01/08 08:13:27;;;;;;;9.40;3.80;;;;;;;1.19;85.09;97444.63;4917274;29;20027;-51
2022/01/08 08:15:52;;;;;;;10.00;4.40;;;;;;;0.78;87.25;97464.44;4934193;29;20031;-47
2022/01/08 08:18:17;;;;;;;9.13;4.30;;;;;;;0.84;86.78;97458.19;4934114;29;20502;-48
2022/01/08 08:20:43;;;;;;;9.63;4.13;;;;;;;1.02;86.05;97466.91;4917525;29;20054;-46
2022/01/08 08:23:08;;;;;;;9.63;3.88;;;;;;;0.77;87.48;97472.25;4933525;29;20039;-47
2022/01/08 08:25:33;;;;;;;8.77;3.58;;;;;;;1.07;86.19;97473.56;4932788;29;20048;-48
2022/01/08 08:27:59;;;;;;;9.40;3.65;;;;;;;1.09;85.83;97463.16;4917525;29;20058;-47
2022/01/08 08:30:24;;;;;;;10.70;3.85;;;;;;;1.17;85.15;97476.56;4933380;29;20043;-47
2022/01/08 08:32:50;;;;;;;8.85;3.97;;;;;;;1.12;84.80;97461.28;4917392;29;20060;-50
2022/01/08 08:35:16;;;;;;;7.80;3.10;;;;;;;1.17;84.78;97461.94;4917103;29;20031;-47
2022/01/08 08:37:41;;;;;;;8.18;3.22;;;;;;;1.19;84.02;97480.78;4932959;29;20035;-48
2022/01/08 08:40:09;;;;;;;7.68;2.88;;;;;;;1.14;84.26;97477.56;4934218;29;20044;-48
2022/01/08 08:42:35;;;;;;;10.55;5.00;;;;;;;1.21;84.30;97482.47;4934547;29;20054;-48
2022/01/08 08:45:01;;;;;;;14.90;6.68;;;;;;;1.22;83.82;97486.75;4911040;29;20451;-50
2022/01/08 08:47:26;;;;;;;12.32;5.80;;;;;;;1.13;83.50;97496.53;4932820;29;20488;-46
2022/01/08 08:49:52;;;;;;;7.20;2.90;;;;;;;1.24;83.22;97500.41;4933940;29;20288;-47
2022/01/08 08:52:17;;;;;;;16.88;10.07;;;;;;;1.12;83.34;97504.34;4934418;29;20051;-46
2022/01/08 08:54:43;;;;;;;23.52;12.63;;;;;;;1.11;83.22;97515.59;4932650;29;20020;-48
2022/01/08 08:57:09;;;;;;;6.82;3.15;;;;;;;1.12;83.66;97519.84;4933834;29;20028;-47
2022/01/08 08:59:35;;;;;;;9.52;5.80;;;;;;;1.09;83.00;97523.41;4932600;29;20042;-47
2022/01/08 09:02:00;;;;;;;7.25;3.00;;;;;;;1.07;83.73;97532.13;4918302;29;20035;-46
2022/01/08 09:04:26;;;;;;;11.73;8.35;;;;;;;1.01;83.86;97543.53;4937372;29;20018;-47
2022/01/08 09:06:51;;;;;;;6.53;2.85;;;;;;;1.06;83.27;97554.50;4924469;29;20377;-47
2022/01/08 09:09:17;;;;;;;7.05;3.50;;;;;;;1.02;83.54;97552.97;4927187;29;20073;-47
2022/01/08 09:11:42;;;;;;;6.90;2.72;;;;;;;0.93;84.05;97561.09;4938101;29;20063;-48
2022/01/08 09:14:08;;;;;;;6.45;2.40;;;;;;;0.84;83.86;97571.78;4937370;29;20020;-47
2022/01/08 09:16:34;;;;;;;9.38;3.45;;;;;;;0.88;84.06;97574.19;4937476;29;20039;-47
2022/01/08 09:18:59;;;;;;;8.55;3.67;;;;;;;0.71;84.50;97587.75;4933123;29;20036;-48
2022/01/08 09:21:25;;;;;;;4.93;2.25;;;;;;;0.84;84.11;97597.59;4937398;29;20368;-48
2022/01/08 09:23:50;;;;;;;6.30;2.53;;;;;;;0.74;84.12;97591.97;4937066;29;20023;-47
2022/01/08 09:26:16;;;;;;;4.10;1.63;;;;;;;0.81;83.93;97602.88;4937526;29;20028;-48
2022/01/08 09:28:41;;;;;;;5.72;1.90;;;;;;;0.84;83.97;97607.94;4937562;29;20027;-49
2022/01/08 09:31:06;;;;;;;6.57;2.85;;;;;;;0.81;84.56;97608.88;4925777;29;20118;-48
2022/01/08 09:33:32;;;;;;;5.07;2.35;;;;;;;0.73;84.43;97621.25;4904352;29;20023;-48
2022/01/08 09:35:57;;;;;;;12.40;6.13;;;;;;;0.88;84.49;97619.81;4937452;29;20023;-49
2022/01/08 09:38:22;;;;;;;6.35;2.25;;;;;;;0.79;84.41;97640.81;4937203;29;20031;-48
2022/01/08 09:40:48;;;;;;;5.00;1.95;;;;;;;0.87;83.53;97633.63;4927360;29;20032;-47
2022/01/08 09:43:13;;;;;;;5.30;2.03;;;;;;;0.83;84.34;97637.25;4935888;29;20062;-48
2022/01/08 09:45:39;;;;;;;4.35;1.90;;;;;;;0.73;84.13;97651.41;4904371;29;20435;-50
2022/01/08 09:48:04;;;;;;;5.10;1.75;;;;;;;0.77;83.30;97652.97;4937131;29;20395;-46
2022/01/08 09:50:30;;;;;;;7.18;1.90;;;;;;;0.65;83.35;97664.56;4938528;29;20031;-47
2022/01/08 09:52:57;;;;;;;5.93;1.77;;;;;;;0.62;83.27;97675.00;4942331;29;20427;-47
2022/01/08 09:55:26;;;;;;;7.93;2.75;;;;;;;0.61;83.44;97676.75;4937254;29;20027;-47
2022/01/08 09:57:52;;;;;;;5.22;2.08;;;;;;;0.53;83.96;97676.19;4936416;29;20023;-49
2022/01/08 10:00:18;;;;;;;5.95;2.72;;;;;;;0.53;83.92;97691.69;4937335;29;20042;-47
2022/01/08 10:02:44;;;;;;;5.32;2.10;;;;;;;0.51;83.62;97695.22;4935633;29;20381;-48
2022/01/08 10:05:11;;;;;;;6.20;2.47;;;;;;;0.50;84.23;97699.53;4936847;29;20035;-47
2022/01/08 10:07:37;;;;;;;6.93;3.53;;;;;;;0.43;84.37;97714.41;4936882;29;20040;-52
2022/01/08 10:10:17;;;;;;;4.45;2.25;;;;;;;0.52;84.81;97715.81;4937083;29;20019;-48
2022/01/08 10:13:00;;;;;;;7.63;2.88;;;;;;;0.56;84.17;97716.53;4935398;29;20028;-50
2022/01/08 10:18:20;;;;;;;6.53;2.67;;;;;;;0.44;85.82;97726.38;4936700;29;20093;-50
2022/01/08 10:20:49;;;;;;;4.63;1.70;;;;;;;0.51;85.04;97724.44;4936084;29;20110;-46
2022/01/08 10:23:14;;;;;;;6.50;2.85;;;;;;;0.33;86.57;97727.69;4934196;29;20032;-53
2022/01/08 10:26:01;;;;;;;5.75;2.20;;;;;;;0.44;85.79;97736.72;4936631;29;20035;-48
2022/01/08 10:28:35;;;;;;;5.88;2.05;;;;;;;0.47;86.08;97733.19;4935869;29;20055;-50
2022/01/08 10:31:11;;;;;;;5.97;2.95;;;;;;;0.50;85.92;97748.56;4936283;29;20106;-47
2022/01/08 10:33:36;;;;;;;7.32;3.60;;;;;;;0.50;85.97;97748.56;4931724;29;20038;-51
2022/01/08 10:36:02;;;;;;;9.57;4.40;;;;;;;0.42;86.00;97751.41;4907660;29;20032;-47
2022/01/08 10:38:27;;;;;;;5.70;2.33;;;;;;;0.50;85.40;97758.88;4917797;29;20091;-47
2022/01/08 10:40:52;;;;;;;10.80;4.57;;;;;;;0.26;87.12;97759.75;4936033;29;20028;-47
2022/01/08 10:43:32;;;;;;;8.55;3.70;;;;;;;0.36;86.84;97772.28;4935098;29;20034;-49
2022/01/08 10:46:25;;;;;;;6.88;3.33;;;;;;;0.44;86.31;97769.41;4935639;29;20492;-51
2022/01/08 10:48:50;;;;;;;8.40;3.90;;;;;;;0.34;86.10;97768.03;4933077;29;20139;-47
2022/01/08 10:51:25;;;;;;;6.40;2.83;;;;;;;0.43;84.51;97799.53;4936045;29;20027;-50
2022/01/08 10:54:05;;;;;;;9.95;4.22;;;;;;;0.42;85.22;97786.72;4926808;29;20050;-47
2022/01/08 10:56:32;;;;;;;10.05;3.75;;;;;;;0.55;84.67;97785.38;4935654;29;20038;-48
2022/01/08 10:58:59;;;;;;;9.05;3.95;;;;;;;0.53;83.23;97794.91;4936224;29;20031;-50
2022/01/08 11:01:47;;;;;;;10.55;4.13;;;;;;;0.66;83.33;97797.91;4936018;29;20031;-47
2022/01/08 11:04:15;;;;;;;9.27;3.67;;;;;;;0.60;83.31;97798.13;4935145;29;20022;-48
2022/01/08 11:06:53;;;;;;;11.73;4.47;;;;;;;0.62;83.34;97792.03;4920313;29;20063;-49
2022/01/08 11:09:19;;;;;;;9.27;3.65;;;;;;;0.61;82.38;97792.91;4921213;29;20027;-47
2022/01/08 11:11:45;;;;;;;8.35;3.70;;;;;;;0.71;82.57;97804.56;4936129;29;20503;-51
2022/01/08 11:14:21;;;;;;;8.90;4.28;;;;;;;0.73;81.22;97801.97;4935567;29;20513;-48
2022/01/08 11:16:50;;;;;;;8.75;3.65;;;;;;;0.74;81.61;97795.06;4908776;29;20459;-50
2022/01/08 11:19:15;;;;;;;8.88;3.70;;;;;;;1.00;80.28;97813.03;4931216;29;20106;-50
2022/01/08 11:21:41;;;;;;;9.15;3.42;;;;;;;1.01;79.20;97804.38;4918624;29;20039;-50
2022/01/08 11:24:06;;;;;;;10.35;4.60;;;;;;;0.91;80.71;97805.63;4934050;29;20015;-48
2022/01/08 11:26:32;;;;;;;13.20;5.10;;;;;;;0.94;80.76;97808.09;4930848;29;20036;-51
2022/01/08 11:28:59;;;;;;;11.20;4.55;;;;;;;1.13;80.29;97803.91;4884052;29;20138;-50
2022/01/08 11:31:29;;;;;;;12.88;4.45;;;;;;;1.29;79.18;97813.69;4926558;29;20403;-48
2022/01/08 11:33:58;;;;;;;15.07;6.00;;;;;;;1.31;79.52;97806.75;4902040;29;20020;-48
2022/01/08 11:36:23;;;;;;;9.57;4.28;;;;;;;1.36;78.84;97804.81;4918514;29;20023;-51
2022/01/08 11:38:49;;;;;;;10.55;4.18;;;;;;;1.46;78.27;97803.56;4902110;29;20047;-50
2022/01/08 11:41:14;;;;;;;15.20;5.40;;;;;;;1.63;77.43;97810.66;4903522;29;20028;-52
2022/01/08 11:43:40;;;;;;;13.43;5.45;;;;;;;1.76;77.01;97817.06;4896859;29;20032;-51
2022/01/08 11:46:07;;;;;;;11.15;4.90;;;;;;;1.65;76.94;97804.53;4899988;29;20519;-52
2022/01/08 11:48:35;;;;;;;11.27;4.65;;;;;;;1.84;75.53;97819.31;4934868;29;20468;-53
2022/01/08 11:51:01;;;;;;;20.58;7.43;;;;;;;1.86;75.92;97814.94;4903981;29;20501;-50
2022/01/08 11:53:33;;;;;;;13.70;4.68;;;;;;;1.76;75.62;97813.63;4923105;29;20046;-51
2022/01/08 11:56:01;;;;;;;9.63;4.55;;;;;;;1.66;75.75;97820.91;4921556;29;20519;-53
2022/01/08 11:58:28;;;;;;;11.60;5.00;;;;;;;1.82;75.91;97821.94;4934711;29;20031;-53
2022/01/08 12:01:06;;;;;;;13.63;4.80;;;;;;;1.84;74.78;97816.75;4930566;29;20078;-51
2022/01/08 12:03:36;;;;;;;9.43;4.20;;;;;;;2.08;73.79;97815.75;4932695;29;20027;-52
2022/01/08 12:06:29;;;;;;;17.63;6.50;;;;;;;2.24;73.43;97822.91;4917242;29;20114;-52
2022/01/08 12:11:46;;;;;;;8.85;4.00;;;;;;;2.13;73.04;97828.50;4929400;29;20107;-53
2022/01/08 12:14:20;;;;;;;8.50;3.40;;;;;;;2.14;71.11;97817.25;4915542;29;20028;-51
2022/01/08 12:16:47;;;;;;;8.27;3.45;;;;;;;2.13;71.93;97825.91;4928424;29;20521;-55
2022/01/08 12:19:33;;;;;;;11.48;3.90;;;;;;;2.26;72.29;97823.66;4917268;29;20031;-49
2022/01/08 12:21:59;;;;;;;8.45;3.70;;;;;;;2.21;71.64;97823.03;4934721;29;20028;-52
2022/01/08 12:24:27;;;;;;;13.07;3.90;;;;;;;2.09;71.58;97819.19;4934130;29;20028;-50
2022/01/08 12:26:54;;;;;;;8.65;3.25;;;;;;;2.01;71.58;97809.16;4934328;29;20043;-53
2022/01/08 12:29:41;;;;;;;11.25;4.18;;;;;;;2.25;72.01;97809.06;4934159;29;20519;-50
2022/01/08 12:32:38;;;;;;;46.38;15.63;;;;;;;2.21;72.39;97807.50;4932455;29;20082;-53
2022/01/08 12:35:16;;;;;;;13.65;5.00;;;;;;;2.48;70.87;97806.34;4915537;29;20069;-50
2022/01/08 12:37:44;;;;;;;15.75;5.65;;;;;;;2.41;71.85;97794.56;4920171;29;20034;-51
2022/01/08 12:40:11;;;;;;;11.25;4.10;;;;;;;2.26;71.59;97797.78;4933838;29;20066;-51
2022/01/08 12:42:43;;;;;;;16.00;4.38;;;;;;;2.36;71.85;97799.09;4951100;29;20099;-50
2022/01/08 12:45:20;;;;;;;18.05;7.30;;;;;;;1.91;72.97;97807.84;4945927;28;20083;-51
2022/01/08 12:47:46;;;;;;;17.15;5.53;;;;;;;1.85;72.24;97805.47;4935236;29;20058;-53
2022/01/08 12:50:21;;;;;;;27.65;9.25;;;;;;;1.83;72.89;97802.97;4933705;29;20400;-51
2022/01/08 12:53:04;;;;;;;39.85;12.23;;;;;;;1.87;73.51;97803.69;4915690;29;20075;-50
2022/01/08 12:55:36;;;;;;;26.65;9.48;;;;;;;1.79;73.97;97787.63;4919471;29;20031;-50
2022/01/08 12:58:18;;;;;;;16.52;6.40;;;;;;;1.67;74.73;97791.53;4930383;29;20491;-56
2022/01/08 13:01:04;;;;;;;20.83;8.02;;;;;;;1.49;75.43;97793.13;4927582;29;20071;-47
2022/01/08 13:03:36;;;;;;;21.83;7.80;;;;;;;1.67;74.90;97782.03;4935361;29;20031;-47
2022/01/08 13:06:10;;;;;;;30.02;9.52;;;;;;;1.58;74.64;97776.38;4934180;29;20463;-47
2022/01/08 13:08:35;;;;;;;15.85;5.30;;;;;;;1.67;74.69;97779.47;4933730;29;20103;-48
2022/01/08 13:11:03;;;;;;;15.80;6.53;;;;;;;1.82;74.80;97782.31;4934250;29;20484;-47
2022/01/08 13:13:50;;;;;;;55.90;19.02;;;;;;;1.73;75.06;97777.53;4933677;29;20070;-47
2022/01/08 13:16:16;;;;;;;16.13;6.22;;;;;;;1.94;74.60;97768.91;4933976;29;20499;-47
2022/01/08 13:18:47;;;;;;;13.23;4.93;;;;;;;2.02;73.09;97772.03;4933969;29;20040;-46
2022/01/08 13:21:13;;;;;;;13.03;5.60;;;;;;;2.05;73.46;97761.53;4934961;29;20079;-49
2022/01/08 13:24:15;;;;;;;22.05;8.50;;;;;;;1.86;74.51;97758.06;4952840;28;20070;-50
2022/01/08 13:26:42;;;;;;;16.33;6.30;;;;;;;2.00;74.20;97762.66;4938007;29;20071;-47
2022/01/08 13:29:29;;;;;;;15.75;5.78;;;;;;;2.26;73.06;97757.22;4934098;29;20107;-48
2022/01/08 13:32:02;;;;;;;29.13;9.02;;;;;;;2.32;73.74;97769.06;4932025;29;20118;-46
2022/01/08 13:34:34;;;;;;;18.23;6.32;;;;;;;2.20;73.19;97774.75;4934006;29;20034;-45
2022/01/08 13:37:01;;;;;;;34.17;13.10;;;;;;;2.00;73.48;97771.25;4942250;29;20564;-47
2022/01/08 13:39:29;;;;;;;18.73;6.28;;;;;;;2.10;73.22;97769.97;4953088;29;20032;-47
2022/01/08 13:42:12;;;;;;;27.98;16.70;;;;;;;2.29;73.65;97769.19;4942825;29;20034;-46
2022/01/08 13:44:39;;;;;;;13.60;7.35;;;;;;;1.90;74.43;97764.78;4952563;28;20019;-47
2022/01/08 13:47:04;;;;;;;16.25;6.35;;;;;;;2.11;73.52;97763.06;4934426;29;20060;-49
2022/01/08 13:49:30;;;;;;;10.98;4.78;;;;;;;2.14;73.29;97758.59;4936635;29;20050;-46
2022/01/08 13:51:56;;;;;;;16.83;4.90;;;;;;;2.03;73.77;97750.44;4947800;29;20035;-46
2022/01/08 13:54:22;;;;;;;10.38;5.22;;;;;;;1.87;74.24;97751.97;4939479;29;20031;-47
2022/01/08 13:56:47;;;;;;;12.18;5.22;;;;;;;1.54;75.78;97744.66;4905262;29;20036;-48
2022/01/08 13:59:15;;;;;;;12.48;4.95;;;;;;;1.97;74.86;97745.50;4922376;29;20491;-46
2022/01/08 14:01:46;;;;;;;16.30;6.50;;;;;;;1.78;75.63;97750.59;4938157;29;20032;-49
2022/01/08 14:04:11;;;;;;;8.98;4.68;;;;;;;1.71;75.10;97745.72;4936783;29;20027;-48
2022/01/08 14:06:38;;;;;;;9.95;4.90;;;;;;;1.86;74.72;97739.94;4937093;29;20043;-46
2022/01/08 14:09:04;;;;;;;13.35;5.85;;;;;;;2.29;73.66;97735.56;4938674;29;20107;-50
2022/01/08 14:11:29;;;;;;;12.57;5.05;;;;;;;2.38;73.18;97723.06;4938350;29;20123;-49
2022/01/08 14:13:56;;;;;;;11.98;5.28;;;;;;;2.37;73.42;97725.69;4936788;29;20051;-49
2022/01/08 14:16:31;;;;;;;12.07;5.38;;;;;;;2.26;74.37;97714.97;4936639;29;20023;-46
2022/01/08 14:19:16;;;;;;;10.35;4.70;;;;;;;2.72;71.40;97700.88;4936779;29;20175;-48
2022/01/08 14:21:53;;;;;;;15.18;5.30;;;;;;;2.47;71.90;97698.50;4919222;29;20028;-47
2022/01/08 14:24:20;;;;;;;15.10;5.00;;;;;;;2.40;72.29;97704.88;4919417;29;20473;-46
2022/01/08 14:27:05;;;;;;;13.30;4.68;;;;;;;2.37;71.45;97700.69;4936350;29;20048;-47
2022/01/08 14:29:31;;;;;;;10.45;3.55;;;;;;;1.93;72.16;97710.34;4945743;29;20031;-51
2022/01/08 14:32:01;;;;;;;8.45;3.67;;;;;;;2.16;72.73;97700.75;4936151;29;20030;-49
2022/01/08 14:34:27;;;;;;;11.00;4.25;;;;;;;2.08;73.50;97708.84;4936350;29;20030;-48
2022/01/08 14:36:59;;;;;;;9.20;3.65;;;;;;;2.11;72.08;97703.53;4936009;29;20035;-47
2022/01/08 14:39:30;;;;;;;9.60;3.83;;;;;;;1.96;72.93;97709.34;4936457;29;20071;-47
2022/01/08 14:42:00;;;;;;;13.05;4.53;;;;;;;1.99;73.01;97699.72;4935627;29;20042;-46
2022/01/08 14:44:26;;;;;;;10.65;4.32;;;;;;;1.76;74.10;97700.69;4935706;29;20039;-46
2022/01/08 14:46:51;;;;;;;11.02;3.85;;;;;;;1.64;74.40;97690.84;4936201;29;20058;-47
2022/01/08 14:49:17;;;;;;;12.32;4.10;;;;;;;1.53;75.19;97693.88;4935987;29;20023;-45
2022/01/08 14:51:42;;;;;;;13.98;4.03;;;;;;;1.53;74.56;97683.53;4936293;29;20075;-46
2022/01/08 14:54:08;;;;;;;8.80;3.90;;;;;;;1.26;75.52;97684.63;4918046;29;20078;-47
2022/01/08 14:56:38;;;;;;;11.32;4.45;;;;;;;1.42;75.46;97672.78;4939235;29;20078;-47
2022/01/08 14:59:03;;;;;;;10.88;4.03;;;;;;;1.55;75.05;97673.09;4936329;29;20062;-47
2022/01/08 15:01:29;;;;;;;9.65;3.63;;;;;;;1.53;76.32;97668.00;4936026;29;20399;-47
2022/01/08 15:03:54;;;;;;;12.50;3.88;;;;;;;1.28;76.77;97659.59;4918205;29;20024;-51
2022/01/08 15:06:19;;;;;;;10.25;3.50;;;;;;;1.23;77.13;97661.50;4935949;29;20067;-50
2022/01/08 15:08:45;;;;;;;8.98;3.47;;;;;;;1.29;76.78;97661.25;4935327;29;20039;-47
2022/01/08 15:11:13;;;;;;;11.02;4.85;;;;;;;1.42;75.69;97652.13;4938143;29;20032;-47
2022/01/08 15:13:39;;;;;;;14.88;4.72;;;;;;;1.26;76.90;97643.28;4942714;29;20027;-45
2022/01/08 15:16:08;;;;;;;9.32;4.57;;;;;;;1.18;76.90;97639.28;4935978;29;20107;-50
2022/01/08 15:18:35;;;;;;;15.27;4.60;;;;;;;1.13;76.78;97640.34;4935502;29;20071;-46
2022/01/08 15:21:01;;;;;;;9.82;4.22;;;;;;;1.56;75.49;97636.88;4937395;29;20042;-58
2022/01/08 15:23:26;;;;;;;11.65;4.53;;;;;;;2.04;73.76;97622.78;4938262;29;20039;-49
2022/01/08 15:25:52;;;;;;;13.57;5.15;;;;;;;2.03;73.35;97618.50;4947527;29;20097;-49
